Time;durP1;ratioP1;P1;durP2;ratioP2;P2;SDS_P1;SDS_P2;PMS_P1;PMS_P2;Temp;Humidity;BMP_temperature;BMP_pressure;BME280_temperature;BME280_humidity;BME280_pressure;Samples;Min_cycle;Max_cycle;Signal;HPM_P1;HPM_P2
2024/03/30 00:00:49;;;;;;;0.70;0.67;;;11.70;99.90;;;;;;5035059;28;20558;-62
2024/03/30 00:03:16;;;;;;;2.00;1.17;;;11.80;99.90;;;;;;5033782;28;20429;-61
2024/03/30 00:05:41;;;;;;;1.10;1.00;;;11.80;99.90;;;;;;5034899;28;20445;-61
2024/03/30 00:08:09;;;;;;;1.00;0.87;;;11.80;99.90;;;;;;5033381;28;20437;-61
2024/03/30 00:10:37;;;;;;;0.83;0.83;;;11.80;99.90;;;;;;5033863;28;20293;-61
2024/03/30 00:13:04;;;;;;;1.40;1.23;;;11.80;99.90;;;;;;5033933;28;20425;-63
2024/03/30 00:15:31;;;;;;;1.30;1.20;;;11.80;99.90;;;;;;5033611;28;21088;-61
2024/03/30 00:18:00;;;;;;;2.23;1.30;;;11.80;99.90;;;;;;5033907;28;20428;-61
2024/03/30 00:20:30;;;;;;;2.47;1.07;;;11.80;99.90;;;;;;5033509;28;20429;-61
2024/03/30 00:22:56;;;;;;;1.40;1.23;;;11.80;99.90;;;;;;5033947;28;20425;-61
2024/03/30 00:25:25;;;;;;;1.80;1.13;;;11.80;99.90;;;;;;5034060;28;20431;-61
2024/03/30 00:27:50;;;;;;;1.87;1.40;;;11.80;99.90;;;;;;5033950;28;20433;-61
2024/03/30 00:30:17;;;;;;;1.03;1.00;;;11.80;99.90;;;;;;5037225;28;21127;-61
2024/03/30 00:32:43;;;;;;;1.33;1.10;;;11.80;99.90;;;;;;5037743;28;20194;-61
2024/03/30 00:35:09;;;;;;;3.00;1.00;;;11.80;99.90;;;;;;5037293;28;20881;-61
2024/03/30 00:37:34;;;;;;;1.30;1.20;;;11.70;99.90;;;;;;5037557;28;20183;-61
2024/03/30 00:40:00;;;;;;;1.57;1.20;;;11.70;99.90;;;;;;5037817;28;20587;-61
2024/03/30 00:42:26;;;;;;;1.77;1.43;;;11.70;99.90;;;;;;5067773;28;20182;-61
2024/03/30 00:44:52;;;;;;;1.43;1.30;;;11.70;99.90;;;;;;5037460;28;20311;-61
2024/03/30 00:47:18;;;;;;;3.73;1.30;;;11.70;99.90;;;;;;5036188;28;20446;-61
2024/03/30 00:49:44;;;;;;;1.33;1.10;;;11.70;99.90;;;;;;5038065;28;20483;-61
2024/03/30 00:52:10;;;;;;;1.87;1.27;;;11.70;99.90;;;;;;5036326;28;20950;-61
2024/03/30 00:54:36;;;;;;;1.50;1.40;;;11.70;99.90;;;;;;5036952;28;20223;-61
2024/03/30 00:57:02;;;;;;;1.50;1.10;;;11.70;99.90;;;;;;5037391;28;20729;-61
2024/03/30 00:59:27;;;;;;;1.27;0.90;;;11.60;99.90;;;;;;5036115;28;20428;-61
2024/03/30 01:01:53;;;;;;;1.70;1.40;;;11.60;99.90;;;;;;5037512;28;20183;-61
2024/03/30 01:04:19;;;;;;;1.90;1.40;;;11.60;99.90;;;;;;5036400;28;20238;-61
2024/03/30 01:06:44;;;;;;;1.30;1.20;;;11.60;99.90;;;;;;5037220;28;20202;-61
2024/03/30 01:09:10;;;;;;;1.63;1.50;;;11.60;99.90;;;;;;5036580;28;21009;-61
2024/03/30 01:11:36;;;;;;;1.40;1.30;;;11.70;99.90;;;;;;5036515;28;20282;-61
2024/03/30 01:14:06;;;;;;;2.07;1.10;;;11.60;99.90;;;;;;5037703;28;20592;-61
2024/03/30 01:16:32;;;;;;;1.20;1.10;;;11.70;99.90;;;;;;5036377;28;20476;-61
2024/03/30 01:18:58;;;;;;;1.80;1.13;;;11.70;99.90;;;;;;5036890;28;20421;-61
2024/03/30 01:21:24;;;;;;;1.50;1.20;;;11.70;99.90;;;;;;5036644;28;20816;-61
2024/03/30 01:23:51;;;;;;;1.10;1.00;;;11.70;99.90;;;;;;5036917;28;20439;-61
2024/03/30 01:26:19;;;;;;;1.30;1.20;;;11.70;99.90;;;;;;5036604;28;20431;-61
2024/03/30 01:28:46;;;;;;;1.30;1.20;;;11.70;99.90;;;;;;5037108;28;21167;-61
2024/03/30 01:31:12;;;;;;;1.50;1.40;;;11.70;99.90;;;;;;5036309;28;20416;-61
2024/03/30 01:33:41;;;;;;;1.63;1.30;;;11.70;99.90;;;;;;5036969;28;20451;-61
2024/03/30 01:36:07;;;;;;;1.37;1.27;;;11.70;99.90;;;;;;5036407;28;20508;-60
2024/03/30 01:38:34;;;;;;;1.40;1.30;;;11.70;99.90;;;;;;5036483;28;20436;-61
2024/03/30 01:40:59;;;;;;;1.53;1.20;;;11.70;99.90;;;;;;5036401;28;20432;-61
2024/03/30 01:43:25;;;;;;;1.43;1.20;;;11.60;99.90;;;;;;5034830;28;20520;-61
2024/03/30 01:45:53;;;;;;;2.63;1.40;;;11.70;99.90;;;;;;5036733;28;20196;-60
2024/03/30 01:48:21;;;;;;;1.20;1.10;;;11.70;99.90;;;;;;5035170;28;20193;-61
2024/03/30 01:50:48;;;;;;;1.80;1.37;;;11.70;99.90;;;;;;5036672;28;21362;-61
2024/03/30 01:53:18;;;;;;;3.93;1.60;;;11.70;99.90;;;;;;5036063;28;20904;-61
2024/03/30 01:55:46;;;;;;;1.70;1.60;;;11.70;99.90;;;;;;5036869;28;20461;-61
2024/03/30 01:58:15;;;;;;;2.00;1.73;;;11.70;99.90;;;;;;5035436;28;20425;-61
2024/03/30 02:00:42;;;;;;;3.73;1.83;;;11.70;99.90;;;;;;5036581;28;20508;-61
2024/03/30 02:03:08;;;;;;;1.53;1.30;;;11.70;99.90;;;;;;5035898;28;20425;-61
2024/03/30 02:05:34;;;;;;;1.67;1.57;;;11.70;99.90;;;;;;5036307;28;20872;-61
2024/03/30 02:08:03;;;;;;;4.63;1.70;;;11.60;99.90;;;;;;5036301;28;20499;-61
2024/03/30 02:10:29;;;;;;;1.70;1.37;;;11.60;99.90;;;;;;5035534;28;20429;-61
2024/03/30 02:12:54;;;;;;;2.93;2.07;;;11.50;99.90;;;;;;5034662;28;20479;-61
2024/03/30 02:15:20;;;;;;;2.27;2.07;;;11.50;99.90;;;;;;5035228;28;20277;-61
2024/03/30 02:17:46;;;;;;;3.23;1.93;;;11.50;99.90;;;;;;5036901;28;20270;-61
2024/03/30 02:20:12;;;;;;;2.53;2.10;;;11.50;99.90;;;;;;5034575;28;20432;-61
2024/03/30 02:22:38;;;;;;;1.83;1.73;;;11.40;99.90;;;;;;5036724;28;20436;-61
2024/03/30 02:25:04;;;;;;;2.20;1.70;;;11.50;99.90;;;;;;5035865;28;20787;-61
2024/03/30 02:27:31;;;;;;;2.10;2.00;;;11.40;99.90;;;;;;5035175;28;20192;-61
2024/03/30 02:30:01;;;;;;;2.30;2.10;;;11.50;99.90;;;;;;5036228;28;20432;-61
2024/03/30 02:32:28;;;;;;;2.67;2.17;;;11.50;99.90;;;;;;5035323;28;20991;-61
2024/03/30 02:34:54;;;;;;;2.40;2.20;;;11.50;99.90;;;;;;5035579;28;20997;-61
2024/03/30 02:37:20;;;;;;;2.57;2.30;;;11.50;99.90;;;;;;5034030;28;20487;-61
2024/03/30 02:39:46;;;;;;;2.43;2.23;;;11.50;99.90;;;;;;5036414;28;20429;-61
2024/03/30 02:42:12;;;;;;;2.20;2.00;;;11.50;99.90;;;;;;5035119;28;20860;-61
2024/03/30 02:44:37;;;;;;;3.03;2.40;;;11.50;99.90;;;;;;5036112;28;20193;-61
2024/03/30 02:47:03;;;;;;;2.90;2.70;;;11.50;99.90;;;;;;5035424;28;20720;-61
2024/03/30 02:49:29;;;;;;;2.57;2.37;;;11.50;99.90;;;;;;5034268;28;20594;-61
2024/03/30 02:51:55;;;;;;;2.40;2.20;;;11.40;99.90;;;;;;5035170;28;20544;-61
2024/03/30 02:54:21;;;;;;;2.30;2.10;;;11.30;99.90;;;;;;5034523;28;20428;-60
2024/03/30 02:56:46;;;;;;;3.00;2.30;;;11.30;99.90;;;;;;5036246;28;20194;-61
2024/03/30 02:59:12;;;;;;;3.50;2.70;;;11.30;99.90;;;;;;5034100;28;20182;-61
2024/03/30 03:01:38;;;;;;;2.57;2.37;;;11.40;99.90;;;;;;5035811;28;20185;-61
2024/03/30 03:04:04;;;;;;;2.60;2.10;;;11.30;99.90;;;;;;5035718;28;20262;-61
2024/03/30 03:06:31;;;;;;;3.10;2.80;;;11.30;99.90;;;;;;5034341;28;20966;-61
2024/03/30 03:08:56;;;;;;;3.10;2.50;;;11.30;99.90;;;;;;5035740;28;20435;-61
2024/03/30 03:11:22;;;;;;;2.73;2.50;;;11.20;99.90;;;;;;5034593;28;21505;-61
2024/03/30 03:13:48;;;;;;;2.60;2.40;;;11.20;99.90;;;;;;5035980;28;20189;-61
2024/03/30 03:16:13;;;;;;;3.27;2.23;;;11.20;99.90;;;;;;5034353;28;20726;-61
2024/03/30 03:18:39;;;;;;;2.50;2.30;;;11.20;99.90;;;;;;5034913;28;20304;-60
2024/03/30 03:21:05;;;;;;;3.10;2.80;;;11.20;99.90;;;;;;5034576;28;20647;-61
2024/03/30 03:23:32;;;;;;;2.67;2.47;;;11.30;99.90;;;;;;5036012;28;20193;-60
2024/03/30 03:25:58;;;;;;;2.40;2.20;;;11.30;99.90;;;;;;5035300;28;21354;-61
2024/03/30 03:28:24;;;;;;;2.67;2.47;;;11.30;99.90;;;;;;5035054;28;20486;-61
2024/03/30 03:30:50;;;;;;;3.00;1.90;;;11.30;99.90;;;;;;5035715;28;20420;-61
2024/03/30 03:33:16;;;;;;;3.70;3.20;;;11.30;99.90;;;;;;5035024;28;20426;-61
2024/03/30 03:35:41;;;;;;;2.47;2.27;;;11.30;99.90;;;;;;5034978;28;20239;-61
2024/03/30 03:38:09;;;;;;;2.07;1.90;;;11.30;99.90;;;;;;5034597;28;20248;-63
2024/03/30 03:40:35;;;;;;;2.70;2.27;;;11.30;99.90;;;;;;5035109;28;20213;-61
2024/03/30 03:43:01;;;;;;;7.90;2.53;;;11.20;99.90;;;;;;5064966;28;21061;-61
2024/03/30 03:45:26;;;;;;;3.70;2.30;;;11.30;99.90;;;;;;5034662;28;20190;-61
2024/03/30 03:47:52;;;;;;;2.40;2.20;;;11.30;99.90;;;;;;5066487;28;20219;-61
2024/03/30 03:50:18;;;;;;;3.00;2.40;;;11.30;99.90;;;;;;5034561;28;20202;-61
2024/03/30 03:52:43;;;;;;;2.63;2.43;;;11.30;99.90;;;;;;5064777;28;20206;-61
2024/03/30 03:55:09;;;;;;;3.07;2.67;;;11.30;99.90;;;;;;5033007;28;20210;-61
2024/03/30 03:57:35;;;;;;;2.43;2.23;;;11.30;99.90;;;;;;5035412;28;20428;-61
2024/03/30 04:00:01;;;;;;;2.07;1.87;;;11.30;99.90;;;;;;5034691;28;20181;-61
2024/03/30 04:02:26;;;;;;;2.40;2.10;;;11.30;99.90;;;;;;5036504;28;21000;-61
2024/03/30 04:04:52;;;;;;;2.87;1.90;;;11.20;99.90;;;;;;5039561;28;20428;-61
2024/03/30 04:07:17;;;;;;;2.40;2.20;;;11.20;99.90;;;;;;5038300;28;20978;-61
2024/03/30 04:09:44;;;;;;;2.17;1.97;;;11.20;99.90;;;;;;5038525;28;20675;-61
2024/03/30 04:12:10;;;;;;;1.90;1.80;;;11.20;99.90;;;;;;5037987;28;20596;-61
2024/03/30 04:14:35;;;;;;;2.37;2.17;;;11.20;99.90;;;;;;5038685;28;20425;-59
2024/03/30 04:17:01;;;;;;;1.90;1.80;;;11.20;99.90;;;;;;5038745;28;20307;-62
2024/03/30 04:19:27;;;;;;;2.50;2.30;;;11.10;99.90;;;;;;5037971;28;20182;-62
2024/03/30 04:21:56;;;;;;;2.20;2.03;;;11.10;99.90;;;;;;5038530;28;20181;-61
2024/03/30 04:24:23;;;;;;;2.57;2.37;;;11.10;99.90;;;;;;5037711;28;20603;-61
2024/03/30 04:26:48;;;;;;;2.33;2.13;;;11.10;99.90;;;;;;5038407;28;20417;-62
2024/03/30 04:29:14;;;;;;;2.17;1.97;;;11.00;99.90;;;;;;5036819;28;20927;-61
2024/03/30 04:31:40;;;;;;;2.47;2.20;;;11.00;99.90;;;;;;5038639;28;20227;-61
2024/03/30 04:34:05;;;;;;;4.20;2.37;;;11.00;99.90;;;;;;5037044;28;20181;-61
2024/03/30 04:36:31;;;;;;;2.60;2.30;;;10.90;99.90;;;;;;5038439;28;20335;-61
2024/03/30 04:38:56;;;;;;;3.60;2.13;;;10.90;99.90;;;;;;5037426;28;20269;-61
2024/03/30 04:41:22;;;;;;;3.13;2.83;;;10.80;99.90;;;;;;5037851;28;20735;-61
2024/03/30 04:43:48;;;;;;;2.97;2.70;;;10.80;99.90;;;;;;5037989;28;20190;-61
2024/03/30 04:46:13;;;;;;;2.57;2.37;;;10.80;99.90;;;;;;5036427;28;20198;-61
2024/03/30 04:48:39;;;;;;;3.93;2.80;;;10.80;99.90;;;;;;5037949;28;20186;-61
2024/03/30 04:51:05;;;;;;;3.80;2.80;;;10.80;99.90;;;;;;5036077;28;20183;-61
2024/03/30 04:53:33;;;;;;;5.00;2.67;;;10.80;99.90;;;;;;5037460;28;20190;-61
2024/03/30 04:56:02;;;;;;;2.83;2.50;;;10.80;99.90;;;;;;5036398;28;20244;-61
2024/03/30 04:58:29;;;;;;;3.10;2.80;;;10.80;99.90;;;;;;5036999;28;20432;-61
2024/03/30 05:01:09;;;;;;;3.03;2.83;;;10.80;99.90;;;;;;5037939;28;20439;-61
2024/03/30 05:03:35;;;;;;;4.87;3.10;;;10.70;99.90;;;;;;5037371;28;20494;-61
2024/03/30 05:06:03;;;;;;;3.23;3.03;;;10.70;99.90;;;;;;5036564;28;21280;-62
2024/03/30 05:08:29;;;;;;;3.33;3.03;;;10.60;99.90;;;;;;5037214;28;20489;-61
2024/03/30 05:10:55;;;;;;;3.30;3.07;;;10.70;99.90;;;;;;5035474;28;20439;-61
2024/03/30 05:13:21;;;;;;;3.87;3.50;;;10.70;99.90;;;;;;5037584;28;20428;-61
2024/03/30 05:15:47;;;;;;;4.27;3.17;;;10.80;99.90;;;;;;5036436;28;20559;-61
2024/03/30 05:18:14;;;;;;;3.30;3.00;;;10.70;99.90;;;;;;5036054;28;20479;-61
2024/03/30 05:20:50;;;;;;;3.80;3.33;;;10.70;99.90;;;;;;5037529;28;20527;-61
2024/03/30 05:23:15;;;;;;;4.50;3.70;;;10.70;99.90;;;;;;5036682;28;20429;-61
2024/03/30 05:25:41;;;;;;;4.73;3.70;;;10.70;99.90;;;;;;5037110;28;20447;-62
2024/03/30 05:28:07;;;;;;;3.60;3.30;;;10.70;99.90;;;;;;5035281;28;20190;-61
2024/03/30 05:30:32;;;;;;;4.53;3.40;;;10.70;99.90;;;;;;5037031;28;20715;-62
2024/03/30 05:32:58;;;;;;;3.90;3.10;;;10.70;99.90;;;;;;5036649;28;20264;-61
2024/03/30 05:35:24;;;;;;;4.03;3.63;;;10.80;99.90;;;;;;5036243;28;20337;-61
2024/03/30 05:37:49;;;;;;;4.53;3.53;;;10.70;99.90;;;;;;5037166;28;20188;-61
2024/03/30 05:40:15;;;;;;;3.37;3.10;;;10.70;99.90;;;;;;5035370;28;20186;-61
2024/03/30 05:42:41;;;;;;;3.50;3.20;;;10.80;99.90;;;;;;5037201;28;20188;-61
2024/03/30 05:45:07;;;;;;;5.33;3.50;;;10.80;99.90;;;;;;5050630;28;20607;-61
2024/03/30 05:47:32;;;;;;;4.07;3.77;;;10.80;99.90;;;;;;5036286;28;20189;-62
2024/03/30 05:49:58;;;;;;;4.73;4.30;;;10.80;99.90;;;;;;5035832;28;20178;-61
2024/03/30 05:52:24;;;;;;;4.07;3.77;;;10.80;99.90;;;;;;5036055;28;20857;-62
2024/03/30 05:54:49;;;;;;;4.17;3.63;;;10.80;99.90;;;;;;5036041;28;20294;-61
2024/03/30 05:57:15;;;;;;;4.53;4.13;;;10.80;99.90;;;;;;5035311;28;20190;-62
2024/03/30 05:59:40;;;;;;;4.27;3.87;;;10.80;99.90;;;;;;5036331;28;20215;-62
2024/03/30 06:02:06;;;;;;;3.80;3.50;;;10.80;99.90;;;;;;5035564;28;20280;-61
2024/03/30 06:04:32;;;;;;;4.17;3.77;;;10.80;99.90;;;;;;5036591;28;20217;-61
2024/03/30 06:06:57;;;;;;;3.87;3.50;;;10.80;99.90;;;;;;5034955;28;20216;-62
2024/03/30 06:09:24;;;;;;;4.20;3.80;;;10.80;99.90;;;;;;5035797;28;20277;-61
2024/03/30 06:11:49;;;;;;;4.43;3.80;;;10.80;99.90;;;;;;5035631;28;20231;-61
2024/03/30 06:14:15;;;;;;;4.67;4.10;;;10.90;99.90;;;;;;5035427;28;20927;-61
2024/03/30 06:16:42;;;;;;;4.37;3.97;;;10.90;99.90;;;;;;5036543;28;20308;-61
2024/03/30 06:19:09;;;;;;;3.80;3.20;;;10.90;99.90;;;;;;5034922;28;20258;-61
2024/03/30 06:21:34;;;;;;;3.90;3.60;;;11.00;99.90;;;;;;5035525;28;20455;-61
2024/03/30 06:24:00;;;;;;;6.30;3.63;;;11.00;99.90;;;;;;5034154;28;20424;-61
2024/03/30 06:26:26;;;;;;;4.53;4.10;;;11.00;99.90;;;;;;5034332;28;20211;-61
2024/03/30 06:28:51;;;;;;;4.10;3.80;;;11.00;99.90;;;;;;5035409;28;20909;-62
2024/03/30 06:31:17;;;;;;;4.03;3.50;;;11.00;99.90;;;;;;5035139;28;20185;-60
2024/03/30 06:33:45;;;;;;;4.17;3.40;;;11.10;99.90;;;;;;5036133;28;20209;-61
2024/03/30 06:36:11;;;;;;;4.43;4.00;;;11.10;99.90;;;;;;5035425;28;20225;-61
2024/03/30 06:38:36;;;;;;;3.83;3.50;;;11.10;99.90;;;;;;5036046;28;20780;-62
2024/03/30 06:43:46;;;;;;;3.93;3.63;;;11.20;99.90;;;;;;5035603;28;20201;-61
2024/03/30 06:46:12;;;;;;;3.83;3.53;;;11.10;99.90;;;;;;5035382;28;20437;-61
2024/03/30 06:48:38;;;;;;;4.47;4.07;;;11.20;99.90;;;;;;5035108;28;20547;-61
2024/03/30 06:51:05;;;;;;;4.60;4.00;;;11.20;99.90;;;;;;5034386;28;20787;-61
2024/03/30 06:53:31;;;;;;;4.20;3.80;;;11.20;99.90;;;;;;5035483;28;20201;-61
2024/03/30 06:55:56;;;;;;;4.33;3.93;;;11.20;99.90;;;;;;5034417;28;20480;-61
2024/03/30 06:58:23;;;;;;;4.10;3.70;;;11.30;99.90;;;;;;5035582;28;20441;-61
2024/03/30 07:00:49;;;;;;;4.50;3.97;;;11.30;99.90;;;;;;5034726;28;20185;-61
2024/03/30 07:03:15;;;;;;;4.20;3.80;;;11.40;99.90;;;;;;5034819;28;20499;-61
2024/03/30 07:05:44;;;;;;;4.33;3.93;;;11.40;99.90;;;;;;5035364;28;20440;-62
2024/03/30 07:08:09;;;;;;;4.23;3.63;;;11.50;99.90;;;;;;5034473;28;20961;-61
2024/03/30 07:10:35;;;;;;;6.13;4.83;;;11.50;99.90;;;;;;5035037;28;20429;-61
2024/03/30 07:13:01;;;;;;;8.43;4.50;;;11.50;99.90;;;;;;5034202;28;20251;-61
2024/03/30 07:15:27;;;;;;;4.43;4.03;;;11.60;99.90;;;;;;5034769;28;20221;-61
2024/03/30 07:17:53;;;;;;;5.03;4.37;;;11.60;99.90;;;;;;5034426;28;20429;-62
2024/03/30 07:20:19;;;;;;;4.93;4.30;;;11.60;99.90;;;;;;5034562;28;20307;-62
2024/03/30 07:22:45;;;;;;;5.57;4.80;;;11.60;99.90;;;;;;5033555;28;20484;-62
2024/03/30 07:25:11;;;;;;;4.90;4.50;;;11.60;99.90;;;;;;5035043;28;20185;-62
2024/03/30 07:27:37;;;;;;;5.47;4.40;;;11.60;99.90;;;;;;5035297;28;20220;-62
2024/03/30 07:30:04;;;;;;;4.63;4.23;;;11.60;99.90;;;;;;5034498;28;20429;-62
2024/03/30 07:32:29;;;;;;;5.30;4.00;;;11.70;99.90;;;;;;5035335;28;20591;-62
2024/03/30 07:34:55;;;;;;;5.07;3.83;;;11.70;99.90;;;;;;5035449;28;20468;-62
2024/03/30 07:37:21;;;;;;;4.33;4.00;;;11.70;99.90;;;;;;5036000;28;20185;-62
2024/03/30 07:39:46;;;;;;;4.90;4.00;;;11.70;99.90;;;;;;5039960;28;20636;-62
2024/03/30 07:42:12;;;;;;;4.97;4.47;;;11.70;99.90;;;;;;5039820;28;20636;-62
2024/03/30 07:44:38;;;;;;;5.03;4.57;;;11.70;99.90;;;;;;5043371;28;20729;-61
2024/03/30 07:47:05;;;;;;;3.97;3.67;;;11.80;99.90;;;;;;5039648;28;20190;-62
2024/03/30 07:49:32;;;;;;;4.90;4.20;;;11.80;99.90;;;;;;5039632;28;20427;-62
2024/03/30 07:51:57;;;;;;;4.83;3.73;;;11.90;99.90;;;;;;5038631;28;20424;-62
2024/03/30 07:54:23;;;;;;;4.60;3.30;;;11.90;99.90;;;;;;5038922;28;20558;-62
2024/03/30 07:57:00;;;;;;;4.67;4.00;;;11.90;99.90;;;;;;5037703;28;20734;-61
2024/03/30 07:59:26;;;;;;;6.13;3.10;;;12.00;99.90;;;;;;5038819;28;20220;-62
2024/03/30 08:01:52;;;;;;;5.00;3.23;;;12.00;99.90;;;;;;5036986;28;20459;-62
2024/03/30 08:04:19;;;;;;;4.80;3.23;;;12.00;99.90;;;;;;5038209;28;20575;-62
2024/03/30 08:06:49;;;;;;;4.27;2.57;;;12.10;99.90;;;;;;5037940;28;20811;-62
2024/03/30 08:09:15;;;;;;;7.23;3.13;;;12.10;99.90;;;;;;5038079;28;20949;-62
2024/03/30 08:11:43;;;;;;;3.40;2.67;;;12.10;99.90;;;;;;5037778;28;20444;-62
2024/03/30 08:14:09;;;;;;;4.13;2.47;;;12.20;99.90;;;;;;5039077;28;20427;-62
2024/03/30 08:16:35;;;;;;;4.10;2.13;;;12.20;99.90;;;;;;5037965;28;20496;-62
2024/03/30 08:19:03;;;;;;;9.90;3.37;;;12.20;99.90;;;;;;5037318;28;20556;-62
2024/03/30 08:21:32;;;;;;;6.13;3.03;;;12.30;99.90;;;;;;5037278;28;20196;-62
2024/03/30 08:23:58;;;;;;;5.93;2.67;;;12.30;99.90;;;;;;5040417;28;20486;-62
2024/03/30 08:26:23;;;;;;;4.60;2.70;;;12.40;99.90;;;;;;5036555;28;20429;-62
2024/03/30 08:28:49;;;;;;;11.80;3.83;;;12.40;99.90;;;;;;5035665;28;20185;-62
2024/03/30 08:31:16;;;;;;;5.20;2.60;;;12.50;99.90;;;;;;5036463;28;20990;-62
2024/03/30 08:33:42;;;;;;;6.70;1.77;;;12.60;99.90;;;;;;5034760;28;20455;-61
2024/03/30 08:36:08;;;;;;;3.30;2.47;;;12.80;99.90;;;;;;5035496;28;20978;-62
2024/03/30 08:38:33;;;;;;;6.93;2.43;;;12.90;99.90;;;;;;5037362;28;20720;-61
2024/03/30 08:40:59;;;;;;;8.27;2.47;;;13.00;99.90;;;;;;5037066;28;20891;-62
2024/03/30 08:43:25;;;;;;;7.50;3.00;;;13.20;99.90;;;;;;5036176;28;20187;-62
2024/03/30 08:45:55;;;;;;;7.60;2.23;;;13.30;99.90;;;;;;5035392;28;20203;-61
2024/03/30 08:48:21;;;;;;;7.03;2.33;;;13.40;99.90;;;;;;5035192;28;20440;-62
2024/03/30 08:50:47;;;;;;;5.80;2.37;;;13.50;99.90;;;;;;5034470;28;20997;-61
2024/03/30 08:53:13;;;;;;;12.77;2.43;;;13.70;99.90;;;;;;5036066;28;20424;-62
2024/03/30 08:55:39;;;;;;;4.53;2.20;;;13.90;99.90;;;;;;5034875;28;20287;-62
2024/03/30 08:58:06;;;;;;;6.77;2.30;;;14.00;99.90;;;;;;5036562;28;20440;-62
2024/03/30 09:00:35;;;;;;;9.93;2.77;;;14.20;99.90;;;;;;5035427;28;20436;-61
2024/03/30 09:03:02;;;;;;;8.07;2.20;;;14.30;99.90;;;;;;5037625;28;20428;-61
2024/03/30 09:05:29;;;;;;;8.23;2.00;;;14.50;99.90;;;;;;5036869;28;20583;-61
2024/03/30 09:07:55;;;;;;;8.47;2.67;;;14.60;99.90;;;;;;5037133;28;20473;-62
2024/03/30 09:10:24;;;;;;;11.07;2.70;;;14.70;99.90;;;;;;5037496;28;20440;-61
2024/03/30 09:12:50;;;;;;;16.67;2.90;;;14.80;99.90;;;;;;5036367;28;20194;-61
2024/03/30 09:15:19;;;;;;;6.57;2.47;;;14.80;99.90;;;;;;5037312;28;20472;-62
2024/03/30 09:17:45;;;;;;;12.13;3.30;;;14.90;99.90;;;;;;5036548;28;20429;-69
2024/03/30 09:20:11;;;;;;;14.70;3.47;;;14.90;99.90;;;;;;5068715;28;20917;-71
2024/03/30 09:22:38;;;;;;;12.87;2.87;;;15.00;99.90;;;;;;5036254;28;20442;-68
2024/03/30 09:25:07;;;;;;;10.67;2.80;;;15.10;99.90;;;;;;5037055;28;20182;-68
2024/03/30 09:27:34;;;;;;;21.47;3.87;;;15.20;99.90;;;;;;5036213;28;20442;-67
2024/03/30 09:29:59;;;;;;;9.77;3.37;;;15.30;99.90;;;;;;5036646;28;20434;-69
2024/03/30 09:32:25;;;;;;;14.63;3.20;;;15.30;99.90;;;;;;5036636;28;20437;-70
2024/03/30 09:34:51;;;;;;;20.43;4.63;;;15.40;99.90;;;;;;5036475;28;20277;-67
2024/03/30 09:37:17;;;;;;;12.90;3.43;;;15.50;99.90;;;;;;5036390;28;20437;-72
2024/03/30 09:39:43;;;;;;;24.30;3.77;;;15.60;99.90;;;;;;5036054;28;20193;-67
2024/03/30 09:42:15;;;;;;;24.33;3.67;;;15.60;99.90;;;;;;5036201;28;20302;-66
2024/03/30 09:44:41;;;;;;;17.13;3.80;;;15.70;99.90;;;;;;5036395;28;20467;-70
2024/03/30 09:47:08;;;;;;;15.47;4.13;;;15.90;99.90;;;;;;5034799;28;20437;-67
2024/03/30 09:49:35;;;;;;;26.83;4.93;;;16.00;99.90;;;;;;5035867;28;20552;-69
2024/03/30 09:52:04;;;;;;;20.87;3.57;;;16.10;99.90;;;;;;5035912;28;20461;-68
2024/03/30 09:54:30;;;;;;;21.03;5.10;;;16.20;99.90;;;;;;5035916;28;20440;-68
2024/03/30 09:56:57;;;;;;;19.83;4.30;;;16.30;99.90;;;;;;5036555;28;20581;-69
2024/03/30 09:59:24;;;;;;;19.83;5.47;;;16.30;99.90;;;;;;5035987;28;20489;-69
2024/03/30 10:01:50;;;;;;;23.87;4.60;;;16.40;99.90;;;;;;5035737;28;20458;-67
2024/03/30 10:04:16;;;;;;;18.83;4.00;;;16.40;99.90;;;;;;5036375;28;20433;-67
2024/03/30 10:06:55;;;;;;;27.93;5.90;;;16.50;99.90;;;;;;5035387;28;20444;-69
2024/03/30 10:09:25;;;;;;;25.67;4.90;;;16.60;99.90;;;;;;5036521;28;20673;-72
2024/03/30 10:12:13;;;;;;;26.43;5.70;;;16.60;99.90;;;;;;5035238;28;20513;-67
2024/03/30 10:14:50;;;;;;;33.90;5.80;;;16.70;99.90;;;;;;5035308;28;20484;-71
2024/03/30 10:17:17;;;;;;;20.13;4.13;;;16.80;98.80;;;;;;5035898;28;20967;-67
2024/03/30 10:19:43;;;;;;;22.20;5.20;;;16.80;99.60;;;;;;5035241;28;20514;-68
2024/03/30 10:22:09;;;;;;;24.73;5.03;;;16.90;98.90;;;;;;5035159;28;20236;-69
2024/03/30 10:24:35;;;;;;;30.73;6.37;;;17.00;98.20;;;;;;5034925;28;20456;-68
2024/03/30 10:27:01;;;;;;;20.43;4.73;;;17.00;97.90;;;;;;5036109;28;20186;-66
2024/03/30 10:29:28;;;;;;;33.90;5.97;;;17.10;98.90;;;;;;5035504;28;20443;-68
2024/03/30 10:31:54;;;;;;;30.70;5.67;;;17.20;97.80;;;;;;5036064;28;20871;-66
2024/03/30 10:34:19;;;;;;;24.60;4.53;;;17.20;98.50;;;;;;5034980;28;20435;-69
2024/03/30 10:36:47;;;;;;;22.33;5.20;;;17.30;98.10;;;;;;5035667;28;20226;-69
2024/03/30 10:39:14;;;;;;;35.03;5.60;;;17.30;97.80;;;;;;5035660;28;20189;-70
2024/03/30 10:41:43;;;;;;;26.60;5.30;;;17.40;97.70;;;;;;5034580;28;20431;-67
2024/03/30 10:44:08;;;;;;;29.87;5.60;;;17.40;97.50;;;;;;5035255;28;20421;-70
2024/03/30 10:46:34;;;;;;;24.47;4.83;;;17.40;97.00;;;;;;5034502;28;20485;-68
2024/03/30 10:49:00;;;;;;;28.03;5.87;;;17.40;98.30;;;;;;5035101;28;20201;-70
2024/03/30 10:51:27;;;;;;;31.70;5.60;;;17.40;97.00;;;;;;5035128;28;20193;-69
2024/03/30 10:54:02;;;;;;;28.63;4.90;;;17.40;97.10;;;;;;5034002;28;20190;-69
2024/03/30 10:56:28;;;;;;;31.33;5.57;;;17.30;96.80;;;;;;5034450;28;20978;-67
2024/03/30 10:58:59;;;;;;;17.20;5.30;;;17.40;96.50;;;;;;5035326;28;20420;-66
2024/03/30 11:01:26;;;;;;;16.47;5.53;;;17.30;96.70;;;;;;5035228;28;20197;-67
2024/03/30 11:03:54;;;;;;;32.90;5.67;;;17.30;96.90;;;;;;5034982;28;20425;-70
2024/03/30 11:06:20;;;;;;;34.27;6.03;;;17.30;96.60;;;;;;5066483;28;20448;-70
2024/03/30 11:08:48;;;;;;;29.57;5.40;;;17.30;95.90;;;;;;5034553;28;20507;-68
2024/03/30 11:11:13;;;;;;;32.30;5.40;;;17.30;95.60;;;;;;5035782;28;20428;-70
2024/03/30 11:13:39;;;;;;;30.53;5.00;;;17.30;95.50;;;;;;5033805;28;20436;-67
2024/03/30 11:16:08;;;;;;;36.00;5.60;;;17.30;95.90;;;;;;5034817;28;20242;-69
2024/03/30 11:18:55;;;;;;;31.87;6.40;;;17.30;96.60;;;;;;5033840;28;20641;-69
2024/03/30 11:21:24;;;;;;;41.23;7.60;;;17.30;96.50;;;;;;5034491;28;20428;-66
2024/03/30 11:24:03;;;;;;;38.87;6.37;;;17.30;96.10;;;;;;5034536;28;20666;-68
2024/03/30 11:26:33;;;;;;;27.77;6.20;;;17.30;96.10;;;;;;5034605;28;20440;-66
2024/03/30 11:29:13;;;;;;;31.07;5.90;;;17.30;96.50;;;;;;5035499;28;20432;-68
2024/03/30 11:31:48;;;;;;;23.70;5.13;;;17.30;96.70;;;;;;5066603;28;20457;-66
2024/03/30 11:34:20;;;;;;;30.30;7.27;;;17.30;96.00;;;;;;5034314;28;20846;-68
2024/03/30 11:36:57;;;;;;;25.00;6.17;;;17.20;96.70;;;;;;5034190;28;20468;-68
2024/03/30 11:39:29;;;;;;;25.63;5.50;;;17.20;96.30;;;;;;5033627;28;20425;-68
2024/03/30 11:42:11;;;;;;;38.93;7.90;;;17.10;96.10;;;;;;5034741;28;20915;-68
2024/03/30 11:44:38;;;;;;;22.87;5.27;;;17.10;96.20;;;;;;5032122;28;20471;-69
2024/03/30 11:47:04;;;;;;;33.80;6.27;;;17.10;96.90;;;;;;5032976;28;20451;-66
2024/03/30 11:49:31;;;;;;;28.37;5.17;;;17.10;96.90;;;;;;5033391;28;20432;-70
2024/03/30 11:51:59;;;;;;;37.93;6.07;;;17.10;96.90;;;;;;5034934;28;20478;-69
2024/03/30 11:54:26;;;;;;;31.80;5.27;;;17.00;97.30;;;;;;5033641;28;20479;-67
2024/03/30 11:57:02;;;;;;;29.50;6.70;;;17.00;97.30;;;;;;5034228;28;20475;-69
2024/03/30 11:59:36;;;;;;;28.37;5.40;;;17.00;97.60;;;;;;5033086;28;20431;-68
2024/03/30 12:02:05;;;;;;;27.20;5.20;;;17.00;97.40;;;;;;5034095;28;20446;-68
2024/03/30 12:04:31;;;;;;;28.30;6.50;;;17.00;97.70;;;;;;5031742;28;21012;-67
2024/03/30 12:06:57;;;;;;;30.37;5.80;;;17.00;98.00;;;;;;5028573;28;20463;-66
2024/03/30 12:09:28;;;;;;;37.47;5.30;;;17.00;97.60;;;;;;5032771;28;20440;-69
2024/03/30 12:12:12;;;;;;;22.07;5.60;;;17.00;97.70;;;;;;5032892;28;20275;-67
2024/03/30 12:14:41;;;;;;;27.50;5.87;;;17.00;98.10;;;;;;5032125;28;20431;-69
2024/03/30 12:17:07;;;;;;;28.90;6.03;;;16.90;98.30;;;;;;5032216;28;20879;-68
2024/03/30 12:19:37;;;;;;;30.70;8.17;;;16.90;98.50;;;;;;5032021;28;20465;-71
2024/03/30 12:22:03;;;;;;;29.63;6.70;;;16.90;98.30;;;;;;5034055;28;20440;-69
2024/03/30 12:24:29;;;;;;;27.70;6.23;;;16.90;98.70;;;;;;5035829;28;20485;-66
2024/03/30 12:26:56;;;;;;;39.90;5.77;;;16.90;99.00;;;;;;5037565;28;20428;-67
2024/03/30 12:29:21;;;;;;;35.17;6.13;;;16.90;98.70;;;;;;5036982;28;20459;-68
2024/03/30 12:31:47;;;;;;;31.73;7.53;;;16.90;99.00;;;;;;5037794;28;20966;-67
2024/03/30 12:34:14;;;;;;;43.33;9.13;;;16.80;98.30;;;;;;5038177;28;20599;-69
2024/03/30 12:36:40;;;;;;;34.50;8.23;;;16.80;98.60;;;;;;5037345;28;20588;-67
2024/03/30 12:39:08;;;;;;;22.50;5.30;;;16.80;99.00;;;;;;5037309;28;20429;-70
2024/03/30 12:41:34;;;;;;;26.33;5.80;;;16.80;98.60;;;;;;5036943;28;20483;-69
2024/03/30 12:44:08;;;;;;;28.27;6.33;;;16.80;99.00;;;;;;5038125;28;20408;-66